Time;durP1;ratioP1;P1;durP2;ratioP2;P2;SDS_P1;SDS_P2;PMS_P1;PMS_P2;Temp;Humidity;BMP_temperature;BMP_pressure;BME280_temperature;BME280_humidity;BME280_pressure;Samples;Min_cycle;Max_cycle;Signal;HPM_P1;HPM_P2
2023/01/16 00:01:29;;;;;;;5.50;2.30;;;4.40;99.90;;;;;;4198706;28;20050;-81
2023/01/16 00:03:30;;;;;;;3.17;1.85;;;4.30;99.90;;;;;;4198977;28;20047;-82
2023/01/16 00:05:31;;;;;;;4.22;2.10;;;5.00;99.90;;;;;;4197267;28;20059;-81
2023/01/16 00:07:32;;;;;;;5.57;2.35;;;4.40;99.90;;;;;;4180616;28;20057;-81
2023/01/16 00:09:34;;;;;;;7.32;3.17;;;4.40;99.90;;;;;;4197529;28;20044;-82
2023/01/16 00:11:35;;;;;;;3.08;2.20;;;4.40;99.90;;;;;;4196670;28;20044;-81
2023/01/16 00:13:37;;;;;;;5.28;3.15;;;5.00;99.90;;;;;;4198499;28;20128;-81
2023/01/16 00:15:43;;;;;;;5.57;1.98;;;4.90;99.90;;;;;;4198100;28;20485;-82
2023/01/16 00:17:43;;;;;;;4.50;1.98;;;4.40;99.90;;;;;;4198377;28;20052;-81
2023/01/16 00:19:45;;;;;;;5.10;1.95;;;4.70;99.90;;;;;;4197250;28;20132;-82
2023/01/16 00:21:47;;;;;;;4.50;2.30;;;5.20;99.90;;;;;;4181048;28;20088;-81
2023/01/16 00:23:49;;;;;;;8.05;2.78;;;4.80;99.90;;;;;;4195673;28;20161;-81
2023/01/16 00:25:50;;;;;;;8.27;2.63;;;4.70;99.90;;;;;;4197976;28;20045;-82
2023/01/16 00:27:50;;;;;;;8.60;2.85;;;4.40;99.90;;;;;;4180190;28;20402;-81
2023/01/16 00:29:51;;;;;;;4.28;2.47;;;5.10;99.90;;;;;;4198212;28;20059;-81
2023/01/16 00:31:52;;;;;;;6.07;3.03;;;4.80;99.90;;;;;;4179972;28;20049;-81
2023/01/16 00:33:53;;;;;;;6.25;2.85;;;4.40;99.90;;;;;;4198052;28;20405;-81
2023/01/16 00:35:54;;;;;;;6.30;2.83;;;4.30;99.90;;;;;;4198115;28;20039;-81
2023/01/16 00:37:55;;;;;;;6.40;2.38;;;5.10;99.90;;;;;;4197143;28;20056;-81
2023/01/16 00:39:56;;;;;;;4.78;3.30;;;5.10;99.90;;;;;;4197081;28;20049;-82
2023/01/16 00:41:57;;;;;;;5.57;2.65;;;4.20;99.90;;;;;;4197997;28;20570;-82
2023/01/16 00:43:58;;;;;;;6.25;2.58;;;4.10;99.90;;;;;;4198651;28;20044;-82
2023/01/16 00:46:00;;;;;;;5.05;2.58;;;4.40;99.90;;;;;;4196784;28;20413;-82
2023/01/16 00:48:03;;;;;;;7.80;2.42;;;4.70;99.90;;;;;;4198775;28;20036;-82
2023/01/16 00:50:04;;;;;;;5.35;2.25;;;4.40;99.90;;;;;;4188155;28;20053;-81
2023/01/16 00:52:04;;;;;;;6.55;3.25;;;4.30;99.90;;;;;;4180443;28;20112;-81
2023/01/16 00:54:05;;;;;;;13.15;2.85;;;5.50;99.90;;;;;;4180047;28;20056;-81
2023/01/16 00:56:06;;;;;;;5.85;2.42;;;4.60;99.90;;;;;;4192368;28;20052;-81
2023/01/16 00:58:10;;;;;;;5.30;2.88;;;4.30;99.90;;;;;;4180577;28;20060;-81
2023/01/16 01:00:11;;;;;;;6.50;2.30;;;4.20;99.90;;;;;;4197379;28;20045;-81
2023/01/16 01:02:14;;;;;;;6.90;2.20;;;4.20;99.90;;;;;;4197260;28;20052;-81
2023/01/16 01:04:16;;;;;;;6.40;2.50;;;5.00;99.90;;;;;;4197026;28;20127;-81
2023/01/16 01:06:17;;;;;;;7.50;2.85;;;4.80;99.90;;;;;;4199925;28;20536;-81
2023/01/16 01:08:17;;;;;;;6.63;2.13;;;4.10;99.90;;;;;;4201086;28;20044;-81
2023/01/16 01:10:18;;;;;;;3.40;2.00;;;4.60;99.90;;;;;;4200356;28;20082;-81
2023/01/16 01:12:20;;;;;;;4.28;1.90;;;4.20;99.90;;;;;;4201203;28;20136;-81
2023/01/16 01:14:21;;;;;;;7.18;2.03;;;4.40;99.90;;;;;;4200187;28;20072;-81
2023/01/16 01:16:21;;;;;;;5.65;2.10;;;4.10;99.90;;;;;;4201031;28;20401;-81
2023/01/16 01:18:23;;;;;;;7.18;2.08;;;4.70;99.90;;;;;;4200337;28;22860;-81
2023/01/16 01:20:23;;;;;;;5.13;2.15;;;5.40;99.90;;;;;;4201650;28;20049;-81
2023/01/16 01:22:26;;;;;;;5.18;2.20;;;4.60;99.90;;;;;;4201566;28;20535;-81
2023/01/16 01:24:26;;;;;;;2.83;1.60;;;4.00;99.90;;;;;;4201031;28;20036;-81
2023/01/16 01:26:28;;;;;;;5.35;2.15;;;5.10;99.90;;;;;;4199985;28;20044;-81
2023/01/16 01:28:28;;;;;;;4.20;2.47;;;4.00;99.90;;;;;;4200744;28;20178;-81
2023/01/16 01:30:29;;;;;;;5.85;1.80;;;4.80;99.90;;;;;;4201773;28;20040;-81
2023/01/16 01:32:30;;;;;;;5.57;1.65;;;4.00;99.90;;;;;;4201411;28;20040;-81
2023/01/16 01:34:33;;;;;;;6.18;2.00;;;4.30;99.90;;;;;;4200310;28;20087;-81
2023/01/16 01:36:35;;;;;;;4.57;1.85;;;5.10;99.90;;;;;;4199795;28;20045;-81
2023/01/16 01:38:35;;;;;;;3.80;1.52;;;4.00;99.90;;;;;;4192115;28;20044;-81
2023/01/16 01:40:36;;;;;;;7.47;1.92;;;3.80;99.90;;;;;;4182510;28;20525;-81
2023/01/16 01:42:44;;;;;;;5.90;1.65;;;3.90;99.90;;;;;;4184618;28;20394;-81
2023/01/16 01:44:47;;;;;;;4.97;1.58;;;4.50;99.90;;;;;;4195629;28;20052;-81
2023/01/16 01:46:48;;;;;;;7.88;1.70;;;3.90;99.90;;;;;;4201507;28;20118;-81
2023/01/16 01:48:56;;;;;;;3.30;1.40;;;4.50;99.90;;;;;;4201239;28;20052;-81
2023/01/16 01:51:25;;;;;;;4.07;1.17;;;4.50;99.90;;;;;;4199321;28;20062;-81
2023/01/16 01:53:41;;;;;;;3.50;1.48;;;3.30;99.90;;;;;;4197671;28;20074;-81
2023/01/16 01:55:46;;;;;;;4.95;1.55;;;3.80;99.90;;;;;;4201474;28;20048;-81
2023/01/16 01:57:55;;;;;;;2.22;1.10;;;4.00;99.90;;;;;;4200131;28;20044;-81
2023/01/16 02:00:02;;;;;;;2.83;1.63;;;4.30;99.90;;;;;;4200097;28;20067;-81
2023/01/16 02:02:05;;;;;;;5.95;1.88;;;3.50;99.90;;;;;;4183204;28;20049;-81
2023/01/16 02:04:14;;;;;;;2.88;1.35;;;4.10;99.90;;;;;;4200607;28;20080;-81
2023/01/16 02:06:19;;;;;;;;;;;3.90;99.90;;;;;;4200346;28;20127;-81
2023/01/16 02:08:25;;;;;;;4.22;1.42;;;3.80;99.90;;;;;;4201150;28;19920;-81
2023/01/16 02:10:46;;;;;;;4.72;2.10;;;4.90;99.90;;;;;;4199778;28;20033;-81
2023/01/16 02:12:48;;;;;;;4.93;1.60;;;4.00;99.90;;;;;;4199474;28;20135;-81
2023/01/16 02:14:50;;;;;;;6.25;2.00;;;3.80;99.90;;;;;;4183848;28;20083;-81
2023/01/16 02:19:40;;;;;;;5.60;1.75;;;3.80;99.90;;;;;;4195541;28;20116;-81
2023/01/16 02:21:59;;;;;;;2.78;1.58;;;3.80;99.90;;;;;;4199365;28;20448;-81
2023/01/16 02:24:01;;;;;;;;;;;3.80;99.90;;;;;;4199196;28;20056;-81
2023/01/16 02:26:23;;;;;;;4.25;1.70;;;3.80;99.90;;;;;;4198723;28;19921;-81
2023/01/16 02:28:45;;;;;;;6.07;1.80;;;3.80;99.90;;;;;;4183048;28;20060;-81
2023/01/16 02:31:13;;;;;;;10.98;1.83;;;3.80;99.90;;;;;;4184184;28;20037;-81
2023/01/16 02:33:33;;;;;;;8.43;1.88;;;3.80;99.90;;;;;;4195341;28;20062;-81
2023/01/16 02:35:48;;;;;;;5.88;1.40;;;4.30;99.90;;;;;;4199236;28;20438;-81
2023/01/16 02:38:01;;;;;;;4.97;2.05;;;3.70;99.90;;;;;;4200693;28;20104;-81
2023/01/16 02:40:13;;;;;;;3.30;1.80;;;3.80;99.90;;;;;;4200630;28;20072;-81
2023/01/16 02:42:23;;;;;;;5.88;2.10;;;3.80;99.90;;;;;;4199094;28;20044;-80
2023/01/16 02:44:53;;;;;;;6.88;1.65;;;3.80;99.90;;;;;;4200446;28;20040;-81
2023/01/16 02:47:16;;;;;;;5.18;1.80;;;3.80;99.90;;;;;;4177484;28;20060;-81
2023/01/16 02:49:37;;;;;;;5.57;1.90;;;3.80;99.90;;;;;;4197890;28;20053;-81
2023/01/16 02:51:49;;;;;;;5.18;1.98;;;3.80;99.90;;;;;;4182190;28;20084;-81
2023/01/16 02:54:02;;;;;;;14.55;2.03;;;3.80;99.90;;;;;;4198764;28;20056;-81
2023/01/16 02:56:09;;;;;;;4.72;1.48;;;3.60;99.90;;;;;;4198973;28;20044;-81
2023/01/16 02:58:11;;;;;;;4.18;1.70;;;4.50;99.90;;;;;;4182071;28;20057;-81
2023/01/16 03:00:19;;;;;;;10.65;1.52;;;4.60;99.90;;;;;;4199863;28;20115;-81
2023/01/16 03:02:20;;;;;;;9.52;1.90;;;3.90;99.90;;;;;;4199231;28;20049;-81
2023/01/16 03:04:40;;;;;;;2.75;1.70;;;4.60;99.90;;;;;;4200308;28;20424;-81
2023/01/16 03:06:53;;;;;;;4.15;1.40;;;3.90;99.90;;;;;;4198885;28;20127;-81
2023/01/16 03:09:18;;;;;;;5.10;1.48;;;3.90;99.90;;;;;;4198466;28;20159;-80
2023/01/16 03:11:23;;;;;;;4.18;1.50;;;3.90;99.90;;;;;;4199925;28;20032;-80
2023/01/16 03:14:02;;;;;;;5.10;1.83;;;4.60;99.90;;;;;;4200004;28;20512;-80
2023/01/16 03:16:11;;;;;;;4.88;1.92;;;3.90;99.90;;;;;;4198639;28;20056;-81
2023/01/16 03:18:33;;;;;;;8.80;1.70;;;3.90;99.90;;;;;;4195063;28;20047;-81
2023/01/16 03:21:07;;;;;;;5.35;2.35;;;3.90;99.90;;;;;;4182633;28;20378;-81
2023/01/16 03:23:36;;;;;;;5.88;2.03;;;3.90;99.90;;;;;;4187255;28;20131;-81
2023/01/16 03:26:19;;;;;;;4.80;2.47;;;3.90;99.90;;;;;;4168868;28;20053;-81
2023/01/16 03:28:43;;;;;;;3.47;1.63;;;3.80;99.90;;;;;;4182430;28;20040;-81
2023/01/16 03:31:21;;;;;;;6.90;2.40;;;4.40;99.90;;;;;;4183388;28;20465;-81
2023/01/16 03:33:31;;;;;;;6.43;2.00;;;3.80;99.90;;;;;;4199663;28;20481;-81
2023/01/16 03:35:39;;;;;;;8.60;2.60;;;4.40;99.90;;;;;;4199606;28;20051;-81
2023/01/16 03:37:50;;;;;;;4.72;1.95;;;3.80;99.90;;;;;;4199300;28;20070;-81
2023/01/16 03:39:59;;;;;;;6.18;3.15;;;5.20;99.90;;;;;;4199334;28;20037;-81
2023/01/16 03:42:07;;;;;;;4.18;1.90;;;3.80;99.90;;;;;;4198866;28;20040;-81
2023/01/16 03:44:24;;;;;;;6.72;2.10;;;3.80;99.90;;;;;;4199001;28;20389;-81
2023/01/16 03:46:31;;;;;;;8.20;2.35;;;3.80;99.90;;;;;;4199294;28;20512;-81
2023/01/16 03:48:57;;;;;;;6.20;2.92;;;5.00;99.90;;;;;;4198928;28;20269;-81
2023/01/16 03:51:04;;;;;;;9.60;2.13;;;4.70;99.90;;;;;;4179192;28;20133;-81
2023/01/16 03:53:10;;;;;;;9.98;1.90;;;3.80;99.90;;;;;;4183111;28;20048;-81
2023/01/16 03:55:16;;;;;;;7.72;1.88;;;5.10;99.90;;;;;;4194600;28;20133;-81
2023/01/16 03:57:22;;;;;;;8.35;1.98;;;5.10;99.90;;;;;;4199310;28;20106;-81
2023/01/16 03:59:23;;;;;;;5.68;1.88;;;4.80;99.90;;;;;;4198442;28;20087;-81
2023/01/16 04:01:36;;;;;;;8.88;2.38;;;4.50;99.90;;;;;;4198867;28;20041;-81
2023/01/16 04:04:06;;;;;;;6.53;1.70;;;3.70;99.90;;;;;;4199094;28;20178;-81
2023/01/16 04:06:24;;;;;;;4.72;1.60;;;3.70;99.90;;;;;;4198557;28;20041;-81
2023/01/16 04:08:34;;;;;;;9.15;1.67;;;3.70;99.90;;;;;;4199496;28;20555;-81
2023/01/16 04:10:40;;;;;;;6.30;1.38;;;3.70;99.90;;;;;;4181563;28;20124;-81
2023/01/16 04:12:46;;;;;;;4.80;1.58;;;3.70;99.90;;;;;;4198122;28;20044;-81
2023/01/16 04:14:54;;;;;;;4.68;1.65;;;3.70;99.90;;;;;;4199709;28;20501;-81
2023/01/16 04:16:56;;;;;;;7.30;1.85;;;4.90;99.90;;;;;;4199134;28;20098;-81
2023/01/16 04:18:58;;;;;;;6.15;1.50;;;4.00;99.90;;;;;;4198865;28;20500;-81
2023/01/16 04:20:59;;;;;;;8.52;2.35;;;5.10;99.90;;;;;;4198413;28;20374;-81
2023/01/16 04:23:00;;;;;;;6.25;1.85;;;5.20;99.90;;;;;;4198818;28;20059;-81
2023/01/16 04:25:07;;;;;;;7.63;1.70;;;3.80;99.90;;;;;;4199065;28;20485;-81
2023/01/16 04:27:07;;;;;;;6.97;2.58;;;3.80;99.90;;;;;;4199465;28;20505;-81
2023/01/16 04:29:10;;;;;;;7.07;1.90;;;3.80;99.90;;;;;;4188989;28;20164;-81
2023/01/16 04:31:11;;;;;;;6.32;2.20;;;4.70;99.90;;;;;;4185796;28;20040;-81
2023/01/16 04:33:12;;;;;;;5.85;2.45;;;3.80;99.90;;;;;;4199616;28;20048;-81
2023/01/16 04:35:13;;;;;;;9.60;3.60;;;4.10;99.90;;;;;;4199167;28;20118;-81
2023/01/16 04:37:17;;;;;;;9.75;3.75;;;3.80;99.90;;;;;;4198923;28;20131;-81
2023/01/16 04:39:19;;;;;;;7.38;1.95;;;3.90;99.90;;;;;;4200896;28;20036;-81
2023/01/16 04:41:36;;;;;;;10.30;2.67;;;4.20;99.90;;;;;;4202073;28;20032;-81
2023/01/16 04:43:36;;;;;;;4.03;1.77;;;4.80;99.90;;;;;;4202078;28;20089;-81
2023/01/16 04:45:39;;;;;;;9.05;2.28;;;4.40;99.90;;;;;;4201532;28;20044;-81
2023/01/16 04:47:39;;;;;;;8.23;2.50;;;4.50;99.90;;;;;;4202581;28;20504;-81
2023/01/16 04:49:40;;;;;;;5.50;2.10;;;4.00;99.90;;;;;;4201896;28;20032;-81
2023/01/16 04:51:42;;;;;;;5.05;2.45;;;4.70;99.90;;;;;;4201310;28;20040;-81
2023/01/16 04:53:43;;;;;;;7.82;2.80;;;4.00;99.90;;;;;;4202238;28;20045;-81
2023/01/16 04:55:43;;;;;;;8.07;2.67;;;4.20;99.90;;;;;;4200821;28;20067;-80
2023/01/16 04:57:44;;;;;;;4.90;2.40;;;4.80;99.90;;;;;;4202213;28;20036;-81
2023/01/16 04:59:45;;;;;;;6.47;2.67;;;3.90;99.90;;;;;;4201577;28;20048;-80
2023/01/16 05:01:45;;;;;;;4.65;2.60;;;4.00;99.90;;;;;;4202914;28;20052;-81
2023/01/16 05:03:47;;;;;;;8.00;2.92;;;4.90;99.90;;;;;;4202571;28;20041;-81
2023/01/16 05:05:50;;;;;;;7.95;2.40;;;4.20;99.90;;;;;;4202059;28;20040;-81
2023/01/16 05:08:15;;;;;;;5.13;2.38;;;4.00;99.90;;;;;;4201054;28;20071;-80
2023/01/16 05:10:11;;;;;;;6.32;2.95;;;4.90;99.90;;;;;;4201930;28;20567;-80
2023/01/16 05:12:12;;;;;;;7.43;2.78;;;4.50;99.90;;;;;;4201750;28;20087;-81
2023/01/16 05:14:12;;;;;;;9.32;3.70;;;3.90;99.90;;;;;;4197619;28;20047;-80
2023/01/16 05:16:13;;;;;;;11.43;2.95;;;3.90;99.90;;;;;;4183668;28;20053;-81
2023/01/16 05:18:15;;;;;;;9.63;2.88;;;3.90;99.90;;;;;;4185368;28;20524;-80
2023/01/16 05:20:17;;;;;;;7.13;3.47;;;4.70;99.90;;;;;;4194045;28;20036;-80
2023/01/16 05:22:17;;;;;;;11.45;3.90;;;3.90;99.90;;;;;;4201437;28;20051;-80
2023/01/16 05:24:18;;;;;;;6.70;3.42;;;3.90;99.90;;;;;;4201946;28;20127;-80
2023/01/16 05:26:19;;;;;;;6.28;3.15;;;4.80;99.90;;;;;;4201531;28;20045;-81
2023/01/16 05:28:20;;;;;;;8.18;3.70;;;4.00;99.90;;;;;;4201296;28;20047;-81
2023/01/16 05:30:22;;;;;;;6.55;3.35;;;4.60;99.90;;;;;;4201425;28;20051;-81
2023/01/16 05:32:22;;;;;;;5.85;3.30;;;3.80;99.90;;;;;;4201287;28;20120;-81
2023/01/16 05:34:23;;;;;;;5.55;3.25;;;3.80;99.90;;;;;;4200807;28;20098;-81
2023/01/16 05:36:24;;;;;;;7.57;4.38;;;3.80;99.90;;;;;;4200731;28;20052;-81
2023/01/16 05:38:24;;;;;;;10.02;3.72;;;3.80;99.90;;;;;;4192398;28;20442;-81
2023/01/16 05:40:26;;;;;;;9.68;3.60;;;4.70;99.90;;;;;;4183661;28;20053;-81
2023/01/16 05:42:27;;;;;;;5.70;3.00;;;3.20;99.90;;;;;;4184593;28;20469;-81
2023/01/16 05:44:27;;;;;;;5.22;2.60;;;4.60;99.90;;;;;;4201803;28;20048;-81
2023/01/16 05:46:29;;;;;;;7.32;3.30;;;3.70;99.90;;;;;;4200588;28;20049;-81
2023/01/16 05:48:35;;;;;;;12.55;3.55;;;5.00;99.90;;;;;;4201710;28;20116;-81
2023/01/16 05:50:37;;;;;;;12.43;3.90;;;3.70;99.90;;;;;;4201782;28;20041;-81
2023/01/16 05:52:37;;;;;;;7.45;3.83;;;3.50;99.90;;;;;;4202066;28;20044;-81
2023/01/16 05:54:38;;;;;;;14.85;5.05;;;3.80;99.90;;;;;;4191783;28;20049;-81
2023/01/16 05:56:39;;;;;;;10.60;4.15;;;4.60;99.90;;;;;;4189435;28;20080;-81
2023/01/16 05:58:40;;;;;;;7.72;4.30;;;4.80;99.90;;;;;;4201367;28;20481;-81
2023/01/16 06:00:42;;;;;;;10.80;3.92;;;3.50;99.90;;;;;;4201297;28;20041;-81
2023/01/16 06:02:43;;;;;;;10.30;4.63;;;3.80;99.90;;;;;;4204611;28;20055;-80
2023/01/16 06:04:44;;;;;;;9.68;4.95;;;4.90;99.90;;;;;;4200922;28;20044;-81
2023/01/16 06:06:45;;;;;;;9.55;4.15;;;2.80;99.90;;;;;;4201090;28;20048;-81
2023/01/16 06:08:47;;;;;;;10.88;4.57;;;3.60;99.90;;;;;;4201157;28;20037;-81
2023/01/16 06:10:50;;;;;;;11.40;4.47;;;3.90;99.90;;;;;;4201033;28;20045;-81
2023/01/16 06:12:50;;;;;;;8.40;4.25;;;4.20;99.90;;;;;;4200494;28;20049;-81
2023/01/16 06:14:51;;;;;;;10.40;4.15;;;3.40;99.90;;;;;;4201063;28;20472;-81
2023/01/16 06:16:52;;;;;;;9.88;4.68;;;4.80;99.90;;;;;;4201064;28;20049;-81
2023/01/16 06:18:54;;;;;;;10.65;4.07;;;4.40;99.90;;;;;;4200344;28;20048;-81
2023/01/16 06:20:55;;;;;;;10.77;5.20;;;4.30;99.90;;;;;;4199716;28;20044;-81
2023/01/16 06:22:56;;;;;;;11.95;3.97;;;3.80;99.90;;;;;;4200725;28;20396;-81
2023/01/16 06:24:57;;;;;;;9.05;3.97;;;4.80;99.90;;;;;;4200573;28;20072;-81
2023/01/16 06:26:59;;;;;;;13.45;5.10;;;4.40;99.90;;;;;;4198454;28;20051;-81
2023/01/16 06:29:00;;;;;;;11.95;5.35;;;4.70;99.90;;;;;;4199868;28;20074;-81
2023/01/16 06:31:00;;;;;;;11.88;4.82;;;4.30;99.90;;;;;;4200392;28;20504;-81
2023/01/16 06:33:01;;;;;;;10.30;4.45;;;2.70;99.90;;;;;;4191373;28;20048;-81
2023/01/16 06:35:02;;;;;;;16.17;4.70;;;4.40;99.90;;;;;;4186005;28;20045;-81
2023/01/16 06:37:04;;;;;;;11.18;4.68;;;3.30;99.90;;;;;;4201081;28;20108;-81
2023/01/16 06:39:07;;;;;;;17.05;6.03;;;2.80;99.90;;;;;;4201115;28;20064;-81
2023/01/16 06:41:09;;;;;;;10.90;5.25;;;3.30;99.90;;;;;;4199488;28;20086;-81
2023/01/16 06:43:11;;;;;;;13.00;5.10;;;3.30;99.90;;;;;;4196098;28;20040;-81
2023/01/16 06:45:11;;;;;;;12.90;5.63;;;4.10;99.90;;;;;;4194231;28;20540;-81
2023/01/16 06:47:12;;;;;;;12.55;4.90;;;4.50;99.90;;;;;;4197585;28;20071;-81
2023/01/16 06:49:13;;;;;;;18.73;6.30;;;4.60;99.90;;;;;;4200585;28;20036;-81
2023/01/16 06:51:13;;;;;;;16.90;6.65;;;3.40;99.90;;;;;;4200469;28;20045;-81
2023/01/16 06:53:15;;;;;;;21.67;6.70;;;3.20;99.90;;;;;;4200688;28;20048;-81
2023/01/16 06:55:17;;;;;;;13.18;5.68;;;4.60;99.90;;;;;;4200138;28;20056;-81
2023/01/16 06:57:18;;;;;;;12.27;6.10;;;3.40;99.90;;;;;;4200847;28;20032;-81
2023/01/16 06:59:18;;;;;;;17.15;6.20;;;2.80;99.90;;;;;;4200910;28;20071;-81
2023/01/16 07:01:19;;;;;;;10.93;6.05;;;2.80;99.90;;;;;;4198773;28;20119;-81
2023/01/16 07:03:21;;;;;;;14.63;5.88;;;4.20;99.90;;;;;;4191784;28;20045;-81
2023/01/16 07:05:24;;;;;;;11.93;5.85;;;2.80;99.90;;;;;;4201167;28;20044;-82
2023/01/16 07:07:27;;;;;;;11.55;5.13;;;3.30;99.90;;;;;;4201384;28;20044;-82
2023/01/16 07:09:32;;;;;;;12.77;5.57;;;3.90;99.90;;;;;;4201126;28;20054;-82
2023/01/16 07:11:32;;;;;;;11.30;5.72;;;3.30;99.90;;;;;;4201172;28;20401;-81
2023/01/16 07:13:33;;;;;;;10.13;4.97;;;3.10;99.90;;;;;;4201153;28;20048;-82
2023/01/16 07:22:34;;;;;;;11.93;4.47;;;3.30;99.90;;;;;;4201597;28;20412;-81
2023/01/16 07:24:38;;;;;;;14.73;4.35;;;4.00;99.90;;;;;;4200932;28;20072;-81
2023/01/16 07:26:43;;;;;;;10.93;4.63;;;3.50;99.90;;;;;;4201330;28;20039;-81
2023/01/16 07:28:43;;;;;;;8.90;4.38;;;4.10;99.90;;;;;;4200818;28;20056;-80
2023/01/16 07:30:46;;;;;;;12.40;5.10;;;4.10;99.90;;;;;;4200683;28;20062;-81
2023/01/16 07:32:47;;;;;;;15.57;4.60;;;3.30;99.90;;;;;;4201032;28;20109;-81
2023/01/16 07:34:48;;;;;;;12.85;5.25;;;4.20;99.90;;;;;;4200515;28;20044;-80
2023/01/16 07:36:49;;;;;;;11.57;3.92;;;4.20;99.90;;;;;;4199422;28;20114;-81
2023/01/16 07:38:49;;;;;;;12.95;4.43;;;3.20;99.90;;;;;;4200531;28;20051;-80
2023/01/16 07:40:50;;;;;;;17.38;5.32;;;3.30;99.90;;;;;;4200167;28;20464;-80
2023/01/16 07:42:51;;;;;;;9.48;4.20;;;4.80;99.90;;;;;;4199678;28;20125;-80
2023/01/16 07:44:52;;;;;;;10.25;4.95;;;3.90;99.90;;;;;;4199254;28;20481;-80
2023/01/16 07:46:53;;;;;;;14.38;4.57;;;3.20;99.90;;;;;;4199322;28;20160;-81
2023/01/16 07:48:55;;;;;;;11.00;4.57;;;3.80;99.90;;;;;;4196874;28;20123;-81
2023/01/16 07:50:58;;;;;;;10.80;3.88;;;4.10;99.90;;;;;;4198336;28;20076;-81
2023/01/16 07:52:58;;;;;;;8.77;4.88;;;3.20;99.90;;;;;;4193247;28;20045;-81
2023/01/16 07:55:02;;;;;;;9.00;4.28;;;4.40;99.90;;;;;;4182518;28;20537;-81
2023/01/16 07:57:04;;;;;;;12.15;5.63;;;3.20;99.90;;;;;;4189474;28;20241;-81
2023/01/16 07:59:06;;;;;;;9.43;4.03;;;4.40;99.90;;;;;;4200681;28;20041;-81
2023/01/16 08:01:09;;;;;;;10.55;3.95;;;3.80;99.90;;;;;;4200313;28;20043;-81
2023/01/16 08:03:13;;;;;;;15.00;4.55;;;3.10;99.90;;;;;;4199807;28;20186;-81
2023/01/16 08:05:15;;;;;;;10.23;4.22;;;2.60;99.90;;;;;;4194010;28;20048;-81
2023/01/16 08:07:16;;;;;;;12.68;5.20;;;2.50;99.90;;;;;;4195838;28;20044;-81
2023/01/16 08:09:17;;;;;;;11.90;3.90;;;3.20;99.90;;;;;;4197005;28;20480;-81
2023/01/16 08:11:38;;;;;;;17.77;4.00;;;2.70;99.90;;;;;;4189895;28;20072;-80
2023/01/16 08:13:40;;;;;;;12.40;4.05;;;3.20;99.90;;;;;;4183106;28;20521;-81
2023/01/16 08:15:41;;;;;;;8.10;3.67;;;3.90;99.90;;;;;;4187915;28;20049;-81
2023/01/16 08:17:41;;;;;;;8.88;4.75;;;3.60;99.90;;;;;;4199392;28;20048;-82
2023/01/16 08:19:42;;;;;;;15.50;3.80;;;4.30;99.90;;;;;;4199072;28;20051;-82
2023/01/16 08:21:44;;;;;;;9.35;4.22;;;4.10;99.90;;;;;;4198088;28;20052;-82
2023/01/16 08:23:46;;;;;;;9.50;4.28;;;3.10;99.90;;;;;;4198114;28;20064;-82
2023/01/16 08:25:49;;;;;;;13.73;4.63;;;3.20;99.90;;;;;;4196472;28;20418;-82
2023/01/16 08:27:51;;;;;;;12.38;4.38;;;3.10;99.90;;;;;;4198459;28;20041;-82
2023/01/16 08:29:53;;;;;;;18.63;5.47;;;3.30;99.90;;;;;;4198084;28;20452;-82
2023/01/16 08:31:54;;;;;;;11.23;4.40;;;4.30;99.90;;;;;;4191379;28;20131;-82
2023/01/16 08:33:55;;;;;;;12.45;4.97;;;2.50;99.90;;;;;;4187292;28;20037;-82
2023/01/16 08:35:58;;;;;;;17.92;4.65;;;4.50;99.90;;;;;;4200249;28;20078;-81
2023/01/16 08:38:00;;;;;;;12.82;4.50;;;3.90;99.90;;;;;;4198613;28;20408;-81
2023/01/16 08:40:04;;;;;;;12.30;4.97;;;3.20;99.90;;;;;;4199275;28;20072;-81
2023/01/16 08:51:44;;;;;;;10.93;4.40;;;3.50;99.90;;;;;;4200996;28;20049;-80
2023/01/16 08:53:45;;;;;;;8.25;3.75;;;3.50;99.90;;;;;;4199525;28;20101;-80
2023/01/16 08:55:45;;;;;;;12.43;4.10;;;3.30;99.90;;;;;;4199513;28;20052;-80
2023/01/16 08:57:46;;;;;;;10.20;4.10;;;3.30;99.90;;;;;;4199894;28;20124;-81
2023/01/16 08:59:48;;;;;;;11.48;3.88;;;4.10;99.90;;;;;;4198673;28;20044;-81
2023/01/16 09:01:48;;;;;;;8.07;3.97;;;4.40;99.90;;;;;;4198811;28;20087;-82
2023/01/16 09:03:49;;;;;;;13.10;4.45;;;3.50;99.90;;;;;;4195458;28;20086;-80
2023/01/16 09:05:50;;;;;;;11.38;4.20;;;3.30;99.90;;;;;;4198866;28;20507;-80
2023/01/16 09:07:52;;;;;;;10.27;3.88;;;4.70;99.90;;;;;;4202732;28;20044;-80
2023/01/16 09:09:52;;;;;;;12.82;3.90;;;3.50;99.90;;;;;;4197109;28;20048;-81
2023/01/16 09:14:14;;;;;;;10.45;3.95;;;3.40;99.90;;;;;;4198834;28;20040;-81
2023/01/16 09:16:24;;;;;;;10.52;3.80;;;3.50;99.90;;;;;;4197528;28;20044;-81
2023/01/16 09:18:25;;;;;;;13.13;4.88;;;4.90;99.90;;;;;;4197886;28;20056;-82
2023/01/16 09:20:27;;;;;;;9.77;4.32;;;3.30;99.90;;;;;;4198772;28;20036;-82
2023/01/16 09:22:28;;;;;;;8.82;4.05;;;3.20;99.90;;;;;;4202639;28;20044;-81
2023/01/16 09:24:28;;;;;;;8.10;3.90;;;4.60;99.90;;;;;;4198653;28;20416;-81
2023/01/16 09:26:30;;;;;;;9.80;3.92;;;4.50;99.90;;;;;;4199442;28;20458;-82
2023/01/16 09:28:31;;;;;;;9.55;3.30;;;3.60;99.90;;;;;;4201208;28;20093;-81
2023/01/16 09:30:31;;;;;;;13.70;3.70;;;4.70;99.90;;;;;;4201232;28;20130;-82
2023/01/16 09:32:33;;;;;;;6.32;3.00;;;4.80;99.90;;;;;;4200841;28;20070;-82
2023/01/16 09:34:38;;;;;;;12.43;4.35;;;3.60;99.90;;;;;;4201305;28;20043;-82
2023/01/16 09:36:39;;;;;;;6.78;3.40;;;3.40;99.90;;;;;;4201412;28;20048;-82
2023/01/16 09:38:39;;;;;;;8.32;3.00;;;3.60;99.90;;;;;;4200823;28;20044;-82
2023/01/16 09:40:49;;;;;;;6.93;3.45;;;4.20;99.90;;;;;;4200605;28;20049;-81
2023/01/16 09:45:49;;;;;;;7.82;3.15;;;3.70;99.90;;;;;;4117567;28;20539;-81
2023/01/16 09:47:55;;;;;;;9.32;4.00;;;3.60;99.90;;;;;;4126198;28;20092;-82
2023/01/16 09:50:03;;;;;;;7.78;3.63;;;4.80;99.90;;;;;;4133505;28;20622;-82
2023/01/16 09:59:51;;;;;;;;;;;4.50;99.90;;;;;;4197320;28;20055;-82
2023/01/16 10:02:05;;;;;;;6.35;2.55;;;3.80;99.90;;;;;;4191255;28;19924;-82
2023/01/16 10:04:19;;;;;;;9.55;2.65;;;3.80;99.90;;;;;;4203908;28;20055;-82
2023/01/16 10:06:25;;;;;;;11.23;2.45;;;3.80;99.90;;;;;;4201522;28;20120;-82
2023/01/16 10:09:02;;;;;;;9.50;2.97;;;3.90;99.90;;;;;;4189320;28;20095;-83
2023/01/16 10:11:21;;;;;;;5.40;2.42;;;3.80;99.90;;;;;;4193429;28;20051;-82
2023/01/16 10:13:49;;;;;;;4.38;1.90;;;3.80;99.90;;;;;;4200297;28;20106;-82
2023/01/16 10:16:25;;;;;;;13.70;3.17;;;3.90;99.90;;;;;;4201510;28;20094;-81
2023/01/16 10:18:38;;;;;;;8.23;2.33;;;3.90;99.90;;;;;;4199874;28;20519;-80
2023/01/16 10:21:02;;;;;;;7.18;3.20;;;3.90;99.90;;;;;;4186812;28;20058;-81
2023/01/16 10:23:03;;;;;;;5.10;1.90;;;3.90;99.90;;;;;;4199584;28;20040;-81
2023/01/16 10:25:29;;;;;;;4.00;2.10;;;4.60;99.90;;;;;;4200926;28;20465;-81
2023/01/16 10:27:41;;;;;;;5.28;2.00;;;3.90;99.90;;;;;;4198579;28;20044;-82
2023/01/16 10:29:54;;;;;;;4.90;2.35;;;3.90;99.90;;;;;;4190131;28;20409;-81
2023/01/16 10:32:12;;;;;;;6.90;2.45;;;3.50;99.90;;;;;;4197484;28;20481;-81
2023/01/16 10:34:27;;;;;;;6.78;2.47;;;4.50;99.90;;;;;;4201187;28;20056;-82
2023/01/16 10:36:34;;;;;;;6.50;2.53;;;4.20;99.90;;;;;;4200762;28;20120;-81
2023/01/16 10:38:51;;;;;;;4.82;2.40;;;5.10;99.90;;;;;;4201096;28;20485;-81
2023/01/16 10:40:54;;;;;;;9.10;2.80;;;4.00;99.90;;;;;;4197264;28;20100;-81
2023/01/16 10:50:27;;;;;;;3.95;1.75;;;4.10;99.90;;;;;;4116845;28;20495;-81
2023/01/16 10:52:28;;;;;;;4.13;1.60;;;4.10;99.90;;;;;;4169763;28;20114;-81
2023/01/16 10:54:29;;;;;;;5.85;1.65;;;4.00;99.90;;;;;;4199045;28;20048;-82
2023/01/16 10:56:33;;;;;;;2.50;1.52;;;3.70;99.90;;;;;;4200200;28;20051;-82
2023/01/16 10:58:39;;;;;;;4.97;1.98;;;5.20;99.90;;;;;;4189296;28;20041;-81
2023/01/16 11:00:43;;;;;;;2.40;1.45;;;4.00;99.90;;;;;;4199308;28;20055;-81
2023/01/16 11:02:47;;;;;;;6.10;1.67;;;4.50;99.90;;;;;;4200969;28;20052;-81
2023/01/16 11:04:48;;;;;;;8.30;1.20;;;3.90;99.90;;;;;;4186556;28;20052;-80
2023/01/16 11:06:49;;;;;;;3.13;1.40;;;4.90;99.90;;;;;;4200261;28;20048;-81
2023/01/16 11:09:13;;;;;;;2.17;1.10;;;3.90;99.90;;;;;;4199621;28;20142;-80
2023/01/16 11:18:35;;;;;;;2.33;1.63;;;3.80;99.90;;;;;;4175875;28;20061;-81
2023/01/16 11:20:39;;;;;;;1.33;0.90;;;3.70;99.90;;;;;;4200122;28;20048;-81
2023/01/16 11:22:40;;;;;;;4.03;1.30;;;4.80;99.90;;;;;;4199833;28;20489;-81
2023/01/16 11:24:44;;;;;;;6.75;1.50;;;4.10;99.90;;;;;;4199001;28;20043;-81
2023/01/16 11:26:53;;;;;;;1.38;0.70;;;3.70;99.90;;;;;;4200501;28;20044;-81
2023/01/16 11:28:56;;;;;;;2.13;1.17;;;4.40;99.90;;;;;;4191263;28;20048;-82
2023/01/16 11:31:25;;;;;;;1.40;0.80;;;4.80;99.90;;;;;;4191365;28;20469;-82
2023/01/16 11:33:40;;;;;;;2.92;1.23;;;3.50;99.90;;;;;;4188977;28;20052;-81
2023/01/16 11:35:50;;;;;;;1.52;0.70;;;3.90;99.90;;;;;;4191523;28;20059;-81
2023/01/16 11:37:52;;;;;;;1.40;0.85;;;4.50;99.90;;;;;;4200616;28;20445;-81
2023/01/16 11:39:54;;;;;;;1.05;0.55;;;4.60;99.90;;;;;;4198804;28;20084;-82
2023/01/16 11:41:57;;;;;;;2.28;0.88;;;3.40;99.90;;;;;;4198794;28;20113;-83
2023/01/16 11:46:49;;;;;;;1.33;1.08;;;3.40;99.90;;;;;;4199911;28;20048;-82
2023/01/16 11:48:57;;;;;;;2.08;1.00;;;4.10;99.90;;;;;;4216611;28;20048;-82
2023/01/16 11:50:59;;;;;;;1.65;0.90;;;3.60;99.90;;;;;;4200981;28;20544;-82